Time;durP1;ratioP1;P1;durP2;ratioP2;P2;SDS_P1;SDS_P2;PMS_P1;PMS_P2;Temp;Humidity;BMP_temperature;BMP_pressure;BME280_temperature;BME280_humidity;BME280_pressure;Samples;Min_cycle;Max_cycle;Signal;HPM_P1;HPM_P2
2023/01/21 00:00:20;;;;;;;;;;;;;;;2.03;79.93;102604.31;5046548;28;19928;-50
2023/01/21 00:02:45;;;;;;;;;;;;;;;2.01;79.96;102603.28;5025787;28;19929;-48
2023/01/21 00:05:10;;;;;;;;;;;;;;;2.04;80.30;102608.63;5046114;28;20270;-51
2023/01/21 00:07:36;;;;;;;;;;;;;;;2.04;80.10;102608.63;5046525;28;20493;-51
2023/01/21 00:10:01;;;;;;;;;;;;;;;2.06;80.19;102611.28;5047744;28;19948;-51
2023/01/21 00:12:26;;;;;;;;;;;;;;;2.09;79.63;102624.25;5046954;28;19929;-49
2023/01/21 00:14:51;;;;;;;;;;;;;;;2.06;79.33;102626.50;5045109;28;19940;-48
2023/01/21 00:17:17;;;;;;;;;;;;;;;2.00;79.57;102625.94;5045188;28;19921;-48
2023/01/21 00:19:42;;;;;;;;;;;;;;;1.98;79.57;102630.00;5046736;28;20365;-49
2023/01/21 00:22:07;;;;;;;;;;;;;;;1.97;79.87;102636.72;5046703;28;20344;-49
2023/01/21 00:24:32;;;;;;;;;;;;;;;1.92;79.55;102632.00;5045185;28;19921;-48
2023/01/21 00:26:58;;;;;;;;;;;;;;;1.88;79.99;102633.34;5046233;28;19939;-50
2023/01/21 00:29:23;;;;;;;;;;;;;;;1.90;79.66;102633.50;5046858;28;19927;-51
2023/01/21 00:31:48;;;;;;;;;;;;;;;1.90;79.94;102625.91;5045976;28;20011;-49
2023/01/21 00:34:13;;;;;;;;;;;;;;;1.91;79.81;102632.75;5045177;28;19925;-49
2023/01/21 00:36:39;;;;;;;;;;;;;;;1.85;79.81;102633.06;5045029;28;19982;-49
2023/01/21 00:39:05;;;;;;;;;;;;;;;1.87;79.63;102640.06;5045442;28;19954;-49
2023/01/21 00:41:30;;;;;;;;;;;;;;;1.87;79.77;102641.72;5050308;28;20634;-49
2023/01/21 00:43:55;;;;;;;;;;;;;;;1.86;79.59;102634.84;5049802;28;19929;-49
2023/01/21 00:46:20;;;;;;;;;;;;;;;1.86;79.89;102652.63;5053250;28;19920;-51
2023/01/21 00:48:46;;;;;;;;;;;;;;;1.86;80.05;102642.47;5048845;28;19927;-49
2023/01/21 00:51:11;;;;;;;;;;;;;;;1.90;79.83;102653.78;5045873;28;20419;-48
2023/01/21 00:53:37;;;;;;;;;;;;;;;1.86;79.49;102662.75;5048565;28;19929;-50
2023/01/21 00:56:04;;;;;;;;;;;;;;;1.83;79.88;102660.84;5049145;28;19932;-51
2023/01/21 00:58:29;;;;;;;;;;;;;;;1.81;79.74;102669.06;5047800;28;19921;-51
2023/01/21 01:01:11;;;;;;;;;;;;;;;1.79;79.82;102670.56;5055162;28;19924;-49
2023/01/21 01:03:38;;;;;;;;;;;;;;;1.78;80.10;102678.94;5054685;28;19954;-45
2023/01/21 01:06:05;;;;;;;;;;;;;;;1.79;80.05;102685.78;5052825;28;19983;-51
2023/01/21 01:08:30;;;;;;;;;;;;;;;1.80;80.01;102678.31;5051355;28;19931;-50
2023/01/21 01:10:56;;;;;;;;;;;;;;;1.82;79.84;102691.13;5049503;28;19920;-49
2023/01/21 01:13:21;;;;;;;;;;;;;;;1.78;79.95;102696.69;5052532;28;19921;-50
2023/01/21 01:15:50;;;;;;;;;;;;;;;1.77;80.10;102700.88;5050578;28;19928;-49
2023/01/21 01:18:15;;;;;;;;;;;;;;;1.74;80.05;102710.72;5050409;28;19921;-50
2023/01/21 01:20:44;;;;;;;;;;;;;;;1.74;80.27;102719.97;5050559;28;19916;-49
2023/01/21 01:23:09;;;;;;;;;;;;;;;1.76;80.13;102726.06;5050691;28;19974;-52
2023/01/21 01:25:36;;;;;;;;;;;;;;;1.76;80.25;102728.59;5050010;28;19916;-51
2023/01/21 01:28:02;;;;;;;;;;;;;;;1.76;80.12;102731.13;5050866;28;19916;-47
2023/01/21 01:30:27;;;;;;;;;;;;;;;1.74;80.18;102740.25;5050423;28;20388;-50
2023/01/21 01:32:52;;;;;;;;;;;;;;;1.73;79.67;102741.91;5048852;28;19932;-51
2023/01/21 01:35:17;;;;;;;;;;;;;;;1.68;79.97;102742.22;5049487;28;20019;-49
2023/01/21 01:37:43;;;;;;;;;;;;;;;1.65;80.28;102741.94;5051007;28;19956;-48
2023/01/21 01:40:09;;;;;;;;;;;;;;;1.66;80.38;102753.88;5048966;28;19968;-51
2023/01/21 01:42:34;;;;;;;;;;;;;;;1.62;80.18;102755.22;5051730;28;19930;-50
2023/01/21 01:45:01;;;;;;;;;;;;;;;1.61;80.35;102754.31;5055984;28;19916;-51
2023/01/21 01:47:29;;;;;;;;;;;;;;;1.61;80.20;102755.97;5054535;28;19924;-48
2023/01/21 01:49:55;;;;;;;;;;;;;;;1.59;80.59;102755.84;5039715;28;19970;-51
2023/01/21 01:52:21;;;;;;;;;;;;;;;1.62;80.39;102757.75;5051168;28;19917;-51
2023/01/21 01:54:48;;;;;;;;;;;;;;;1.65;80.08;102767.31;5055760;28;19960;-51
2023/01/21 01:57:15;;;;;;;;;;;;;;;1.61;80.11;102772.06;5054533;28;19925;-45
2023/01/21 01:59:41;;;;;;;;;;;;;;;1.57;80.36;102774.16;5057733;28;19916;-50
2023/01/21 02:02:08;;;;;;;;;;;;;;;1.57;80.27;102780.13;5053392;28;20290;-49
2023/01/21 02:04:37;;;;;;;;;;;;;;;1.57;80.41;102790.28;5050204;28;19918;-49
2023/01/21 02:07:03;;;;;;;;;;;;;;;1.55;80.55;102785.81;5048253;28;19924;-48
2023/01/21 02:09:28;;;;;;;;;;;;;;;1.55;80.38;102781.63;5056385;28;19966;-50
2023/01/21 02:11:54;;;;;;;;;;;;;;;1.54;80.34;102790.00;5047360;28;19928;-50
2023/01/21 02:14:19;;;;;;;;;;;;;;;1.57;80.62;102790.28;5049796;28;19921;-50
2023/01/21 02:16:51;;;;;;;;;;;;;;;1.60;80.33;102799.81;5049083;28;19920;-51
2023/01/21 02:19:16;;;;;;;;;;;;;;;1.61;80.31;102802.50;5050404;28;20534;-48
2023/01/21 02:21:47;;;;;;;;;;;;;;;1.57;80.20;102800.41;5047884;28;19921;-48
2023/01/21 02:24:27;;;;;;;;;;;;;;;1.52;80.24;102800.75;5049156;28;19917;-48
2023/01/21 02:26:58;;;;;;;;;;;;;;;1.51;80.44;102804.00;5048598;28;20561;-52
2023/01/21 02:29:46;;;;;;;;;;;;;;;1.48;80.37;102806.28;5049050;28;20401;-46
2023/01/21 02:32:26;;;;;;;;;;;;;;;1.48;80.47;102809.69;5039951;28;20658;-51
2023/01/21 02:34:58;;;;;;;;;;;;;;;1.49;80.37;102816.53;5046584;28;19925;-50
2023/01/21 02:37:44;;;;;;;;;;;;;;;1.54;80.59;102827.13;5048360;28;19931;-49
2023/01/21 02:40:09;;;;;;;;;;;;;;;1.55;80.36;102831.47;5048080;28;19962;-49
2023/01/21 02:42:37;;;;;;;;;;;;;;;1.53;80.34;102827.88;5048321;28;19916;-51
2023/01/21 02:45:21;;;;;;;;;;;;;;;1.51;80.35;102825.19;5033142;28;19956;-49
2023/01/21 02:47:54;;;;;;;;;;;;;;;1.48;80.48;102835.03;5053931;28;20007;-51
2023/01/21 02:50:19;;;;;;;;;;;;;;;1.47;80.35;102823.13;5050479;28;19925;-48
2023/01/21 02:52:44;;;;;;;;;;;;;;;1.48;80.13;102839.22;5052731;28;19923;-51
2023/01/21 02:55:14;;;;;;;;;;;;;;;1.48;80.25;102835.03;5051804;28;19931;-50
2023/01/21 02:57:52;;;;;;;;;;;;;;;1.47;80.25;102838.34;5051464;28;19931;-50
2023/01/21 03:00:22;;;;;;;;;;;;;;;1.47;80.34;102842.50;5051653;28;19920;-50
2023/01/21 03:02:47;;;;;;;;;;;;;;;1.47;80.34;102851.00;5046358;28;20020;-51
2023/01/21 03:05:20;;;;;;;;;;;;;;;1.43;80.03;102845.50;5052937;28;20007;-48
2023/01/21 03:08:02;;;;;;;;;;;;;;;1.40;80.24;102853.72;5053350;28;20373;-50
2023/01/21 03:10:34;;;;;;;;;;;;;;;1.39;80.32;102849.34;5052861;28;19920;-50
2023/01/21 03:13:01;;;;;;;;;;;;;;;1.35;79.98;102852.38;5051283;28;20284;-49
2023/01/21 03:18:33;;;;;;;;;;;;;;;1.29;80.52;102854.31;5047030;28;19932;-49
2023/01/21 03:21:06;;;;;;;;;;;;;;;1.28;80.55;102861.03;5048201;28;19939;-50
2023/01/21 03:23:32;;;;;;;;;;;;;;;1.27;80.41;102863.38;5046410;28;19920;-51
2023/01/21 03:25:59;;;;;;;;;;;;;;;1.22;80.33;102865.50;5049007;28;19921;-49
2023/01/21 03:28:26;;;;;;;;;;;;;;;1.20;80.49;102872.03;5047238;28;19916;-49
2023/01/21 03:31:00;;;;;;;;;;;;;;;1.18;80.65;102872.63;5047971;28;19916;-49
2023/01/21 03:33:27;;;;;;;;;;;;;;;1.21;80.77;102867.84;5044706;28;20393;-50
2023/01/21 03:35:54;;;;;;;;;;;;;;;1.25;80.77;102872.47;5048223;28;20016;-47
2023/01/21 03:38:37;;;;;;;;;;;;;;;1.29;80.61;102889.78;5047993;28;19916;-49
2023/01/21 03:41:06;;;;;;;;;;;;;;;1.31;80.47;102885.75;5050054;28;19916;-51
2023/01/21 03:43:31;;;;;;;;;;;;;;;1.34;80.60;102886.06;5051098;28;19917;-50
2023/01/21 03:45:56;;;;;;;;;;;;;;;1.35;80.34;102885.31;5048991;28;19935;-44
2023/01/21 03:48:40;;;;;;;;;;;;;;;1.36;80.40;102889.63;5051681;28;20014;-49
2023/01/21 03:51:08;;;;;;;;;;;;;;;1.33;80.31;102890.25;5050175;28;19916;-47
2023/01/21 03:53:34;;;;;;;;;;;;;;;1.33;80.28;102894.38;5051654;28;20281;-50
2023/01/21 03:55:59;;;;;;;;;;;;;;;1.28;80.30;102891.44;5046869;28;19921;-51
2023/01/21 03:58:24;;;;;;;;;;;;;;;1.29;80.28;102902.47;5045633;28;19971;-49
2023/01/21 04:00:50;;;;;;;;;;;;;;;1.28;80.06;102906.63;5047661;28;19921;-51
2023/01/21 04:03:15;;;;;;;;;;;;;;;1.26;80.19;102903.03;5046300;28;20320;-50
2023/01/21 04:05:40;;;;;;;;;;;;;;;1.26;80.30;102903.03;5051260;28;20349;-50
2023/01/21 04:08:05;;;;;;;;;;;;;;;1.29;80.08;102905.00;5047530;28;20297;-49
2023/01/21 04:10:31;;;;;;;;;;;;;;;1.24;80.12;102906.19;5048272;28;19925;-48
2023/01/21 04:12:56;;;;;;;;;;;;;;;1.23;80.10;102901.88;5046554;28;19946;-49
2023/01/21 04:15:21;;;;;;;;;;;;;;;1.22;80.04;102911.09;5053471;28;19928;-51
2023/01/21 04:17:46;;;;;;;;;;;;;;;1.20;80.12;102909.16;5052536;28;19925;-52
2023/01/21 04:20:12;;;;;;;;;;;;;;;1.21;80.19;102918.53;5051526;28;20058;-48
2023/01/21 04:22:37;;;;;;;;;;;;;;;1.21;80.25;102918.53;5052066;28;20010;-50
2023/01/21 04:25:04;;;;;;;;;;;;;;;1.18;80.05;102920.78;5017867;28;19928;-50
2023/01/21 04:27:29;;;;;;;;;;;;;;;1.14;80.23;102918.69;5051586;28;19917;-47
2023/01/21 04:29:54;;;;;;;;;;;;;;;1.14;80.37;102917.03;5053450;28;19965;-51
2023/01/21 04:32:20;;;;;;;;;;;;;;;1.12;80.39;102913.47;5050408;28;19927;-51
2023/01/21 04:34:45;;;;;;;;;;;;;;;1.10;80.43;102919.16;5033120;28;19924;-49
2023/01/21 04:37:10;;;;;;;;;;;;;;;1.08;80.25;102918.97;5051081;28;19925;-50
2023/01/21 04:39:35;;;;;;;;;;;;;;;1.05;80.56;102923.75;5052405;28;19920;-50
2023/01/21 04:42:01;;;;;;;;;;;;;;;1.04;80.67;102920.31;5052585;28;19917;-51
2023/01/21 04:44:26;;;;;;;;;;;;;;;1.04;80.55;102917.78;5049700;28;19936;-51
2023/01/21 04:46:51;;;;;;;;;;;;;;;1.02;80.61;102931.91;5049035;28;19943;-51
2023/01/21 04:49:16;;;;;;;;;;;;;;;1.04;80.80;102930.47;5048503;28;19936;-46
2023/01/21 04:51:42;;;;;;;;;;;;;;;1.08;80.75;102931.63;5054824;28;19925;-50
2023/01/21 04:54:08;;;;;;;;;;;;;;;1.11;80.56;102942.09;5053768;28;19999;-51
2023/01/21 04:56:33;;;;;;;;;;;;;;;1.10;80.34;102934.34;5058550;28;20395;-50
2023/01/21 04:58:58;;;;;;;;;;;;;;;1.12;80.52;102948.06;5049841;28;19929;-50
2023/01/21 05:01:24;;;;;;;;;;;;;;;1.12;80.49;102948.94;5048971;28;19951;-47
2023/01/21 05:03:49;;;;;;;;;;;;;;;1.15;80.43;102950.88;5051079;28;20269;-51
2023/01/21 05:06:14;;;;;;;;;;;;;;;1.16;80.51;102955.22;5050172;28;20518;-45
2023/01/21 05:08:39;;;;;;;;;;;;;;;1.14;80.40;102955.03;5049780;28;20011;-49
2023/01/21 05:11:08;;;;;;;;;;;;;;;1.16;80.34;102961.19;5048665;28;20336;-46
2023/01/21 05:13:33;;;;;;;;;;;;;;;1.14;80.26;102962.66;5051057;28;19921;-48
2023/01/21 05:16:03;;;;;;;;;;;;;;;1.15;80.39;102961.91;5049723;28;19925;-51
2023/01/21 05:18:28;;;;;;;;;;;;;;;1.15;80.37;102961.00;5050907;28;20035;-50
2023/01/21 05:20:55;;;;;;;;;;;;;;;1.12;80.22;102961.63;5051520;28;20020;-49
2023/01/21 05:23:21;;;;;;;;;;;;;;;1.11;80.35;102962.38;5050192;28;19921;-51
2023/01/21 05:25:47;;;;;;;;;;;;;;;1.13;80.41;102965.03;5050238;28;20400;-51
2023/01/21 05:28:13;;;;;;;;;;;;;;;1.11;80.16;102964.91;5051290;28;20393;-50
2023/01/21 05:30:38;;;;;;;;;;;;;;;1.10;80.34;102977.41;5055074;28;19929;-49
2023/01/21 05:33:03;;;;;;;;;;;;;;;1.08;80.19;102978.13;5049530;28;19985;-52
2023/01/21 05:35:28;;;;;;;;;;;;;;;1.08;80.39;102973.06;5048597;28;20020;-50
2023/01/21 05:37:53;;;;;;;;;;;;;;;1.10;80.24;102983.38;5051601;28;19956;-52
2023/01/21 05:40:19;;;;;;;;;;;;;;;1.11;80.23;102980.09;5050877;28;19921;-50
2023/01/21 05:42:45;;;;;;;;;;;;;;;1.09;80.07;102989.16;5050852;28;19996;-51
2023/01/21 05:45:11;;;;;;;;;;;;;;;1.07;80.30;102985.59;5050232;28;19988;-49
2023/01/21 05:47:37;;;;;;;;;;;;;;;1.08;80.40;102982.31;5052654;28;19921;-50
2023/01/21 05:50:02;;;;;;;;;;;;;;;1.08;80.31;102984.84;5051280;28;20282;-50
2023/01/21 05:52:27;;;;;;;;;;;;;;;1.08;80.17;102993.34;5049033;28;19921;-48
2023/01/21 05:54:52;;;;;;;;;;;;;;;1.07;80.20;102989.03;5049258;28;19974;-49
2023/01/21 05:57:18;;;;;;;;;;;;;;;1.09;79.90;102996.75;5048539;28;19920;-48
2023/01/21 05:59:43;;;;;;;;;;;;;;;1.08;79.99;102997.50;5054009;28;19975;-46
2023/01/21 06:02:09;;;;;;;;;;;;;;;1.06;79.98;102996.47;5035091;28;19924;-50
2023/01/21 06:04:34;;;;;;;;;;;;;;;1.04;79.99;102998.88;5049360;28;19921;-48
2023/01/21 06:06:59;;;;;;;;;;;;;;;1.03;80.07;103009.75;5050418;28;19920;-48
2023/01/21 06:09:24;;;;;;;;;;;;;;;1.01;79.99;103008.66;5048549;28;19921;-49
2023/01/21 06:11:50;;;;;;;;;;;;;;;1.00;80.17;103009.41;5050210;28;19974;-50
2023/01/21 06:14:15;;;;;;;;;;;;;;;1.01;80.06;103016.28;5048721;28;20435;-50
2023/01/21 06:16:40;;;;;;;;;;;;;;;1.02;80.24;103013.00;5050818;28;20014;-49
2023/01/21 06:19:05;;;;;;;;;;;;;;;1.02;80.00;103013.00;5051286;28;19983;-48
2023/01/21 06:21:30;;;;;;;;;;;;;;;1.04;80.10;103010.63;5050123;28;19917;-51
2023/01/21 06:23:56;;;;;;;;;;;;;;;1.02;79.96;103017.16;5031841;28;19920;-50
2023/01/21 06:26:21;;;;;;;;;;;;;;;1.02;79.93;103018.06;5046582;28;19921;-50
2023/01/21 06:28:46;;;;;;;;;;;;;;;1.00;80.11;103021.19;5050211;28;19974;-49
2023/01/21 06:31:12;;;;;;;;;;;;;;;0.99;79.82;103017.75;5048531;28;19921;-50
2023/01/21 06:33:37;;;;;;;;;;;;;;;0.98;80.05;103028.66;5055323;28;19925;-46
2023/01/21 06:36:02;;;;;;;;;;;;;;;0.95;79.88;103023.25;5052441;28;19928;-46
2023/01/21 06:38:27;;;;;;;;;;;;;;;0.93;79.99;103028.91;5045209;28;19924;-46
2023/01/21 06:40:53;;;;;;;;;;;;;;;0.93;79.88;103041.59;5048075;28;20322;-48
2023/01/21 06:43:18;;;;;;;;;;;;;;;0.92;79.91;103050.81;5048477;28;20011;-50
2023/01/21 06:45:43;;;;;;;;;;;;;;;0.92;80.02;103050.81;5048614;28;20055;-50
2023/01/21 06:48:09;;;;;;;;;;;;;;;0.92;80.11;103055.00;5048976;28;19921;-50
2023/01/21 06:50:34;;;;;;;;;;;;;;;0.93;79.86;103056.78;5049960;28;20393;-51
2023/01/21 06:52:59;;;;;;;;;;;;;;;0.92;80.00;103070.19;5047955;28;20012;-49
2023/01/21 06:55:25;;;;;;;;;;;;;;;0.93;79.89;103075.41;5047000;28;19958;-50
2023/01/21 06:57:50;;;;;;;;;;;;;;;0.92;79.90;103071.09;5048570;28;20640;-48
2023/01/21 07:00:17;;;;;;;;;;;;;;;0.92;80.07;103075.25;5050750;28;20341;-49
2023/01/21 07:02:42;;;;;;;;;;;;;;;0.93;79.96;103077.06;5047982;28;20039;-46
2023/01/21 07:05:07;;;;;;;;;;;;;;;0.93;79.73;103083.00;5049874;28;20008;-49
2023/01/21 07:07:32;;;;;;;;;;;;;;;0.91;79.75;103079.44;5048057;28;19916;-46
2023/01/21 07:09:58;;;;;;;;;;;;;;;0.90;79.83;103081.78;5051267;28;20357;-51
2023/01/21 07:12:23;;;;;;;;;;;;;;;0.87;79.69;103089.09;5050761;28;20357;-51
2023/01/21 07:14:48;;;;;;;;;;;;;;;0.82;79.69;103086.06;5044840;28;19932;-50
2023/01/21 07:17:15;;;;;;;;;;;;;;;0.82;79.88;103093.69;5053640;28;19979;-48
2023/01/21 07:19:40;;;;;;;;;;;;;;;0.79;79.90;103095.91;5046055;28;19966;-47
2023/01/21 07:22:05;;;;;;;;;;;;;;;0.75;79.93;103106.44;5047688;28;20338;-50
2023/01/21 07:24:31;;;;;;;;;;;;;;;0.67;80.25;103114.91;5048522;28;19925;-51
2023/01/21 07:26:56;;;;;;;;;;;;;;;0.60;80.66;103097.25;5048663;28;19920;-49
2023/01/21 07:29:22;;;;;;;;;;;;;;;0.60;80.64;103112.44;5044778;28;19923;-50
2023/01/21 07:31:47;;;;;;;;;;;;;;;0.58;80.71;103117.34;5047445;28;19920;-50
2023/01/21 07:34:12;;;;;;;;;;;;;;;0.58;80.96;103119.00;5049084;28;19999;-48
2023/01/21 07:36:37;;;;;;;;;;;;;;;0.58;80.71;103127.50;5048799;28;19923;-46
2023/01/21 07:39:03;;;;;;;;;;;;;;;0.55;81.06;103129.72;5047531;28;20330;-50
2023/01/21 07:41:28;;;;;;;;;;;;;;;0.50;81.21;103129.22;5049308;28;20365;-51
2023/01/21 07:43:53;;;;;;;;;;;;;;;0.49;81.63;103134.13;5047797;28;19921;-51
2023/01/21 07:46:19;;;;;;;;;;;;;;;0.46;81.56;103139.75;5049006;28;19917;-50
2023/01/21 07:48:49;;;;;;;;;;;;;;;0.45;81.95;103150.63;5047757;28;19960;-50
2023/01/21 07:51:15;;;;;;;;;;;;;;;0.45;81.83;103144.66;5055154;28;19964;-50
2023/01/21 07:53:40;;;;;;;;;;;;;;;0.47;82.01;103158.38;5051255;28;19963;-50
2023/01/21 07:56:06;;;;;;;;;;;;;;;0.48;82.17;103162.69;5051874;28;19940;-51
2023/01/21 07:58:32;;;;;;;;;;;;;;;0.47;82.64;103171.91;5049374;28;19925;-47
2023/01/21 08:00:57;;;;;;;;;;;;;;;0.46;82.82;103175.19;5052514;28;20377;-51
2023/01/21 08:03:23;;;;;;;;;;;;;;;0.45;82.59;103181.00;5047786;28;20309;-54
2023/01/21 08:05:50;;;;;;;;;;;;;;;0.46;83.10;103184.44;5052071;28;20393;-49
2023/01/21 08:08:16;;;;;;;;;;;;;;;0.46;83.27;103176.84;5050022;28;19928;-46
2023/01/21 08:10:41;;;;;;;;;;;;;;;0.48;83.36;103182.94;5052450;28;19936;-53
2023/01/21 08:13:06;;;;;;;;;;;;;;;0.48;83.22;103190.53;5032149;28;20006;-50
2023/01/21 08:15:32;;;;;;;;;;;;;;;0.48;83.92;103193.97;5052821;28;19928;-50
2023/01/21 08:17:57;;;;;;;;;;;;;;;0.44;83.99;103199.47;5051899;28;19925;-55
2023/01/21 08:20:22;;;;;;;;;;;;;;;0.39;84.16;103195.53;5049588;28;19931;-51
2023/01/21 08:22:47;;;;;;;;;;;;;;;0.42;84.09;103211.03;5052825;28;20011;-50
2023/01/21 08:25:13;;;;;;;;;;;;;;;0.44;84.19;103216.28;5048685;28;19921;-50
2023/01/21 08:27:38;;;;;;;;;;;;;;;0.48;84.38;103219.28;5050399;28;19929;-52
2023/01/21 08:30:03;;;;;;;;;;;;;;;0.49;84.58;103228.69;5049986;28;20444;-47
2023/01/21 08:32:30;;;;;;;;;;;;;;;0.49;83.92;103231.22;5035526;28;19925;-50
2023/01/21 08:34:55;;;;;;;;;;;;;;;0.50;84.54;103229.59;5048483;28;19935;-53
2023/01/21 08:37:21;;;;;;;;;;;;;;;0.54;84.50;103226.63;5051114;28;19920;-52
2023/01/21 08:39:46;;;;;;;;;;;;;;;0.52;85.61;103238.22;5051198;28;19935;-52
2023/01/21 08:42:11;;;;;;;;;;;;;;;0.48;85.02;103233.56;5050371;28;19927;-49
2023/01/21 08:44:36;;;;;;;;;;;;;;;0.45;86.19;103236.69;5049654;28;19921;-45
2023/01/21 08:47:02;;;;;;;;;;;;;;;0.41;86.24;103237.09;5049561;28;19982;-52
2023/01/21 08:49:27;;;;;;;;;;;;;;;0.38;86.32;103235.88;5051600;28;19921;-51
2023/01/21 08:51:52;;;;;;;;;;;;;;;0.34;86.87;103249.81;5052121;28;19916;-48
2023/01/21 08:54:17;;;;;;;;;;;;;;;0.30;87.59;103247.69;5050639;28;19970;-50
2023/01/21 08:56:43;;;;;;;;;;;;;;;0.29;87.48;103250.97;5049568;28;19920;-49
2023/01/21 08:59:08;;;;;;;;;;;;;;;0.31;87.19;103257.09;5051622;28;19936;-49
2023/01/21 09:01:35;;;;;;;;;;;;;;;0.37;87.00;103260.28;5050637;28;20012;-47
2023/01/21 09:04:00;;;;;;;;;;;;;;;0.46;86.68;103260.38;5051610;28;19936;-49
2023/01/21 09:06:27;;;;;;;;;;;;;;;0.53;86.53;103258.63;5049167;28;19921;-51
2023/01/21 09:08:53;;;;;;;;;;;;;;;0.62;86.13;103267.97;5051683;28;19916;-49
2023/01/21 09:11:18;;;;;;;;;;;;;;;0.66;86.08;103263.38;5051203;28;19927;-50
2023/01/21 09:13:44;;;;;;;;;;;;;;;0.72;86.21;103268.19;5032933;28;19921;-47
2023/01/21 09:16:11;;;;;;;;;;;;;;;0.73;86.66;103267.47;5051079;28;20018;-47
2023/01/21 09:18:36;;;;;;;;;;;;;;;0.68;86.83;103273.69;5050078;28;20066;-47
2023/01/21 09:21:02;;;;;;;;;;;;;;;0.68;86.86;103269.50;5051762;28;20392;-45
2023/01/21 09:23:31;;;;;;;;;;;;;;;0.69;86.95;103266.25;5049106;28;19917;-44
2023/01/21 09:26:05;;;;;;;;;;;;;;;0.72;86.69;103266.53;5050373;28;19964;-43
2023/01/21 09:28:31;;;;;;;;;;;;;;;0.75;86.73;103276.13;5048215;28;19932;-46
2023/01/21 09:30:57;;;;;;;;;;;;;;;0.74;87.15;103276.88;5049090;28;19991;-47
2023/01/21 09:33:23;;;;;;;;;;;;;;;0.71;86.73;103279.94;5050985;28;20308;-45
2023/01/21 09:35:52;;;;;;;;;;;;;;;0.72;87.11;103283.38;5050812;28;19921;-48
2023/01/21 09:38:17;;;;;;;;;;;;;;;0.72;86.95;103284.28;5049718;28;20411;-47
2023/01/21 09:40:43;;;;;;;;;;;;;;;0.73;87.22;103297.88;5051291;28;19916;-48
2023/01/21 09:43:11;;;;;;;;;;;;;;;0.77;87.08;103294.91;5051102;28;19925;-48
2023/01/21 09:45:38;;;;;;;;;;;;;;;0.79;86.56;103301.06;5050902;28;19924;-45
2023/01/21 09:48:05;;;;;;;;;;;;;;;0.79;86.92;103308.66;5051062;28;19956;-47
2023/01/21 09:50:31;;;;;;;;;;;;;;;0.79;87.19;103306.13;5049247;28;19979;-47
2023/01/21 09:53:05;;;;;;;;;;;;;;;0.76;86.74;103305.78;5049705;28;19923;-46
2023/01/21 09:55:33;;;;;;;;;;;;;;;0.78;87.02;103315.31;5048192;28;19927;-50
2023/01/21 09:58:16;;;;;;;;;;;;;;;0.80;87.00;103315.50;5046915;28;19921;-50
2023/01/21 10:00:42;;;;;;;;;;;;;;;0.80;87.31;103320.56;5050402;28;19917;-47
2023/01/21 10:03:07;;;;;;;;;;;;;;;0.84;87.23;103340.41;5050001;28;20286;-49
2023/01/21 10:05:39;;;;;;;;;;;;;;;0.77;87.21;103338.84;5050744;28;19931;-46
2023/01/21 10:08:14;;;;;;;;;;;;;;;0.71;87.04;103333.13;5050125;28;20419;-46
2023/01/21 10:10:43;;;;;;;;;;;;;;;0.73;87.23;103345.97;5048499;28;19953;-46
2023/01/21 10:13:26;;;;;;;;;;;;;;;0.73;87.55;103341.81;5047612;28;20004;-46
2023/01/21 10:15:52;;;;;;;;;;;;;;;0.71;87.41;103343.25;5048651;28;20019;-48
2023/01/21 10:18:28;;;;;;;;;;;;;;;0.64;87.81;103344.97;5050073;28;19991;-47
2023/01/21 10:20:58;;;;;;;;;;;;;;;0.61;87.61;103352.22;5048598;28;20208;-48
2023/01/21 10:23:23;;;;;;;;;;;;;;;0.63;87.78;103355.84;5049891;28;20006;-46
2023/01/21 10:25:48;;;;;;;;;;;;;;;0.65;87.63;103347.66;5047426;28;20365;-48
2023/01/21 10:28:21;;;;;;;;;;;;;;;0.63;87.63;103341.56;5049827;28;19917;-47
2023/01/21 10:30:51;;;;;;;;;;;;;;;0.60;87.83;103330.19;5046790;28;20332;-55
2023/01/21 10:33:19;;;;;;;;;;;;;;;0.65;87.90;103341.72;5050413;28;19917;-44
2023/01/21 10:35:51;;;;;;;;;;;;;;;0.72;88.07;103332.41;5049017;28;20389;-51
2023/01/21 10:38:17;;;;;;;;;;;;;;;0.78;87.65;103330.50;5047595;28;19943;-47
2023/01/21 10:40:57;;;;;;;;;;;;;;;0.86;87.64;103321.22;5049232;28;19916;-48
2023/01/21 10:43:29;;;;;;;;;;;;;;;0.94;87.58;103322.03;5032304;28;19923;-49
2023/01/21 10:46:14;;;;;;;;;;;;;;;1.00;87.35;103331.16;5048598;28;19978;-47
2023/01/21 10:48:46;;;;;;;;;;;;;;;1.08;87.06;103327.78;5048962;28;20004;-46
2023/01/21 10:51:17;;;;;;;;;;;;;;;1.14;87.00;103321.59;5048043;28;19917;-44
2023/01/21 10:53:49;;;;;;;;;;;;;;;1.18;86.81;103326.25;5049945;28;19913;-49
2023/01/21 10:56:28;;;;;;;;;;;;;;;1.25;86.74;103318.53;5048277;28;19921;-49
2023/01/21 10:59:03;;;;;;;;;;;;;;;1.37;86.80;103316.38;5045172;28;19920;-48
2023/01/21 11:01:31;;;;;;;;;;;;;;;1.47;86.59;103314.09;5044783;28;19975;-51
2023/01/21 11:04:04;;;;;;;;;;;;;;;1.58;86.28;103314.44;5049518;28;20369;-42
2023/01/21 11:06:31;;;;;;;;;;;;;;;1.67;86.10;103318.66;5044117;28;19917;-46
2023/01/21 11:09:01;;;;;;;;;;;;;;;1.74;86.04;103331.22;5049391;28;20000;-46
2023/01/21 11:11:29;;;;;;;;;;;;;;;1.83;85.87;103329.66;5047630;28;19920;-49
2023/01/21 11:13:55;;;;;;;;;;;;;;;1.90;85.53;103326.09;5048916;28;20886;-49
2023/01/21 11:16:52;;;;;;;;;;;;;;;1.98;85.98;103312.53;5048597;28;19928;-50
2023/01/21 11:19:22;;;;;;;;;;;;;;;2.09;85.63;103317.06;5001295;28;20385;-50
2023/01/21 11:21:56;;;;;;;;;;;;;;;2.13;85.58;103311.56;5049843;28;19917;-49
2023/01/21 11:24:23;;;;;;;;;;;;;;;2.20;85.50;103318.16;5045991;28;19925;-52
2023/01/21 11:26:52;;;;;;;;;;;;;;;2.24;84.97;103312.63;5049627;28;20435;-48
2023/01/21 11:29:19;;;;;;;;;;;;;;;2.30;85.16;103314.13;5046432;28;19912;-46
2023/01/21 11:31:47;;;;;;;;;;;;;;;2.37;85.16;103308.06;5047536;28;19917;-46
2023/01/21 11:34:17;;;;;;;;;;;;;;;2.44;84.98;103310.47;5047833;28;19940;-42
2023/01/21 11:36:54;;;;;;;;;;;;;;;2.49;84.76;103301.66;5048378;28;19913;-47
2023/01/21 11:39:22;;;;;;;;;;;;;;;2.56;84.45;103308.25;5047360;28;19917;-49
2023/01/21 11:41:54;;;;;;;;;;;;;;;2.62;84.75;103308.84;5049359;28;19921;-49
2023/01/21 11:44:20;;;;;;;;;;;;;;;2.68;84.48;103302.75;5047985;28;19924;-47
2023/01/21 11:46:45;;;;;;;;;;;;;;;2.75;84.16;103299.16;5048370;28;19921;-50
2023/01/21 11:49:11;;;;;;;;;;;;;;;2.77;84.40;103294.22;5048395;28;19916;-46
2023/01/21 11:51:37;;;;;;;;;;;;;;;2.80;84.16;103295.44;5049435;28;19917;-49
2023/01/21 11:54:07;;;;;;;;;;;;;;;2.84;84.14;103294.06;5049194;28;19919;-47
2023/01/21 11:56:33;;;;;;;;;;;;;;;2.89;83.89;103292.88;5047975;28;19929;-48
2023/01/21 11:58:59;;;;;;;;;;;;;;;2.90;83.62;103294.66;5047057;28;19920;-50
2023/01/21 12:01:24;;;;;;;;;;;;;;;2.95;83.62;103298.56;5047763;28;20431;-49
2023/01/21 12:03:52;;;;;;;;;;;;;;;2.98;83.58;103296.31;5046975;28;19921;-43
2023/01/21 12:06:21;;;;;;;;;;;;;;;3.01;83.41;103299.16;5045886;28;19959;-49
2023/01/21 12:08:51;;;;;;;;;;;;;;;3.06;83.29;103299.59;5046864;28;19979;-47
2023/01/21 12:11:22;;;;;;;;;;;;;;;3.09;83.29;103299.88;5046335;28;19917;-51
2023/01/21 12:14:05;;;;;;;;;;;;;;;3.12;83.14;103302.75;5046737;28;20448;-46
2023/01/21 12:16:39;;;;;;;;;;;;;;;3.16;82.87;103302.28;5042971;28;19982;-49
2023/01/21 12:19:17;;;;;;;;;;;;;;;3.20;82.88;103305.25;5043460;28;19974;-50
2023/01/21 12:22:00;;;;;;;;;;;;;;;3.24;82.73;103309.00;5046813;28;20464;-48
2023/01/21 12:24:33;;;;;;;;;;;;;;;3.26;81.05;103304.06;5044997;28;19916;-48
2023/01/21 12:27:02;;;;;;;;;;;;;;;3.25;82.00;103298.09;5046732;28;19930;-47
2023/01/21 12:29:37;;;;;;;;;;;;;;;3.28;82.37;103307.66;5043505;28;19917;-51
2023/01/21 12:32:09;;;;;;;;;;;;;;;3.32;81.62;103305.53;5046371;28;19971;-50
2023/01/21 12:34:38;;;;;;;;;;;;;;;3.34;81.83;103300.63;5045957;28;19928;-46
2023/01/21 12:37:08;;;;;;;;;;;;;;;3.37;81.60;103306.00;5050637;28;19917;-54
2023/01/21 12:39:35;;;;;;;;;;;;;;;3.40;81.94;103298.69;5048349;28;20405;-50
2023/01/21 12:42:05;;;;;;;;;;;;;;;3.43;82.05;103299.84;5050019;28;20332;-50
2023/01/21 12:44:34;;;;;;;;;;;;;;;3.45;80.15;103298.34;5049647;28;20432;-53
2023/01/21 12:47:02;;;;;;;;;;;;;;;3.44;81.28;103296.56;5051291;28;20388;-47
2023/01/21 12:49:46;;;;;;;;;;;;;;;3.48;80.90;103297.75;5050456;28;19927;-51
2023/01/21 12:52:21;;;;;;;;;;;;;;;3.48;80.64;103298.66;5046180;28;19923;-48